Time;durP1;ratioP1;P1;durP2;ratioP2;P2;SDS_P1;SDS_P2;PMS_P1;PMS_P2;Temp;Humidity;BMP_temperature;BMP_pressure;BME280_temperature;BME280_humidity;BME280_pressure;Samples;Min_cycle;Max_cycle;Signal;HPM_P1;HPM_P2
2024/01/21 00:00:12;;;;;;;2.40;2.20;;;2.20;83.50;;;;;;5034885;28;20213;-72
2024/01/21 00:02:38;;;;;;;3.70;2.00;;;2.20;83.40;;;;;;5036548;28;20440;-72
2024/01/21 00:05:04;;;;;;;3.13;2.17;;;2.20;82.70;;;;;;5035425;28;20440;-72
2024/01/21 00:07:29;;;;;;;2.27;1.53;;;2.30;80.20;;;;;;5035810;28;20452;-72
2024/01/21 00:09:55;;;;;;;3.87;2.20;;;2.30;80.50;;;;;;5036866;28;20432;-72
2024/01/21 00:12:21;;;;;;;3.30;2.50;;;2.30;81.90;;;;;;5018682;28;20281;-72
2024/01/21 00:14:47;;;;;;;3.10;2.17;;;2.30;81.10;;;;;;5035849;28;20224;-72
2024/01/21 00:17:12;;;;;;;3.63;2.33;;;2.40;79.40;;;;;;5034693;28;21072;-72
2024/01/21 00:19:39;;;;;;;4.07;2.53;;;2.40;80.00;;;;;;5035764;28;20660;-72
2024/01/21 00:22:05;;;;;;;3.10;2.20;;;2.40;78.30;;;;;;5017824;28;20343;-72
2024/01/21 00:24:31;;;;;;;3.53;2.50;;;2.40;77.70;;;;;;5036431;28;20436;-72
2024/01/21 00:26:57;;;;;;;3.70;2.67;;;2.40;79.90;;;;;;5035778;28;20870;-71
2024/01/21 00:29:23;;;;;;;3.77;2.13;;;2.50;79.60;;;;;;5017264;28;20494;-71
2024/01/21 00:31:48;;;;;;;3.60;2.17;;;2.50;80.10;;;;;;5035929;28;20843;-71
2024/01/21 00:34:14;;;;;;;2.87;2.50;;;2.50;78.30;;;;;;5035839;28;20182;-71
2024/01/21 00:36:40;;;;;;;2.80;2.43;;;2.50;79.10;;;;;;5036051;28;20193;-71
2024/01/21 00:39:05;;;;;;;4.27;2.90;;;2.50;79.10;;;;;;5035668;28;20198;-71
2024/01/21 00:41:31;;;;;;;3.03;2.27;;;2.50;78.90;;;;;;5036068;28;20253;-71
2024/01/21 00:43:57;;;;;;;2.57;2.23;;;2.50;78.30;;;;;;5036262;28;20193;-71
2024/01/21 00:46:22;;;;;;;3.33;2.53;;;2.60;78.10;;;;;;5035431;28;20182;-71
2024/01/21 00:48:48;;;;;;;5.27;2.60;;;2.50;80.20;;;;;;5035234;28;20474;-71
2024/01/21 00:51:14;;;;;;;3.90;2.80;;;2.60;78.50;;;;;;5034959;28;20177;-72
2024/01/21 00:53:40;;;;;;;4.10;2.53;;;2.60;79.30;;;;;;5019043;28;20220;-72
2024/01/21 00:56:06;;;;;;;3.73;2.40;;;2.60;79.20;;;;;;5034542;28;20861;-72
2024/01/21 00:58:31;;;;;;;3.07;2.40;;;2.60;78.30;;;;;;5035986;28;20178;-72
2024/01/21 01:00:57;;;;;;;3.80;2.57;;;2.60;79.00;;;;;;5034348;28;20851;-71
2024/01/21 01:03:24;;;;;;;5.70;3.17;;;2.60;78.50;;;;;;5034518;28;20217;-72
2024/01/21 01:05:50;;;;;;;4.50;3.27;;;2.60;79.00;;;;;;5035623;28;20183;-72
2024/01/21 01:08:17;;;;;;;5.17;2.80;;;2.60;78.10;;;;;;5034662;28;20566;-72
2024/01/21 01:10:43;;;;;;;4.73;2.53;;;2.70;79.40;;;;;;5035628;28;20448;-72
2024/01/21 01:13:09;;;;;;;3.43;2.70;;;2.70;79.10;;;;;;5034244;28;20436;-72
2024/01/21 01:15:35;;;;;;;4.47;2.80;;;2.70;79.80;;;;;;5035093;28;20444;-72
2024/01/21 01:18:01;;;;;;;3.73;2.70;;;2.70;80.50;;;;;;5033794;28;20527;-72
2024/01/21 01:20:26;;;;;;;3.53;2.73;;;2.70;77.90;;;;;;5035301;28;20570;-72
2024/01/21 01:22:52;;;;;;;4.80;3.20;;;2.70;77.80;;;;;;5035491;28;20265;-72
2024/01/21 01:25:18;;;;;;;5.17;3.40;;;2.80;78.60;;;;;;5035246;28;20189;-72
2024/01/21 01:27:43;;;;;;;5.33;2.80;;;2.80;78.10;;;;;;5034394;28;20240;-72
2024/01/21 01:30:10;;;;;;;4.13;2.70;;;2.80;78.50;;;;;;5034537;28;20232;-72
2024/01/21 01:32:36;;;;;;;5.77;3.30;;;2.80;77.30;;;;;;5034222;28;20182;-72
2024/01/21 01:35:01;;;;;;;3.13;2.63;;;2.80;78.00;;;;;;5016203;28;20444;-72
2024/01/21 01:37:27;;;;;;;4.20;3.00;;;2.80;79.30;;;;;;5035592;28;20186;-71
2024/01/21 01:39:52;;;;;;;2.90;2.60;;;2.70;79.40;;;;;;5034512;28;20214;-72
2024/01/21 01:42:18;;;;;;;5.10;3.80;;;2.70;79.10;;;;;;5017163;28;20759;-72
2024/01/21 01:44:44;;;;;;;5.90;3.17;;;2.70;77.80;;;;;;5034053;28;20255;-72
2024/01/21 01:47:10;;;;;;;6.10;3.27;;;2.70;78.10;;;;;;5034074;28;20194;-72
2024/01/21 01:49:40;;;;;;;5.53;3.67;;;2.80;77.30;;;;;;5017206;28;20221;-71
2024/01/21 01:52:07;;;;;;;4.10;2.93;;;2.80;78.60;;;;;;5033706;28;20438;-72
2024/01/21 01:54:34;;;;;;;5.00;3.23;;;2.80;79.70;;;;;;5017335;28;20460;-72
2024/01/21 01:57:03;;;;;;;4.23;3.13;;;2.80;79.40;;;;;;5033684;28;21007;-72
2024/01/21 01:59:30;;;;;;;4.63;3.50;;;2.70;78.00;;;;;;5033987;28;20435;-72
2024/01/21 02:01:56;;;;;;;3.67;3.03;;;2.80;77.90;;;;;;5033881;28;20432;-72
2024/01/21 02:04:23;;;;;;;4.27;2.83;;;2.80;79.40;;;;;;5016698;28;20444;-72
2024/01/21 02:06:48;;;;;;;5.23;3.40;;;2.70;79.20;;;;;;5017090;28;20779;-72
2024/01/21 02:09:14;;;;;;;4.50;3.37;;;2.80;79.90;;;;;;5033370;28;20471;-72
2024/01/21 02:11:40;;;;;;;4.47;3.13;;;2.80;79.20;;;;;;5034918;28;20664;-72
2024/01/21 02:14:05;;;;;;;4.87;3.33;;;2.80;80.00;;;;;;5033294;28;20849;-72
2024/01/21 02:16:31;;;;;;;4.57;3.43;;;2.80;79.60;;;;;;5033668;28;20835;-72
2024/01/21 02:18:58;;;;;;;3.93;3.33;;;2.80;80.60;;;;;;5016246;28;20190;-72
2024/01/21 02:21:23;;;;;;;4.87;3.23;;;2.80;80.00;;;;;;5032875;28;20194;-71
2024/01/21 02:23:49;;;;;;;5.10;3.23;;;2.80;79.30;;;;;;5015611;28;20475;-72
2024/01/21 02:26:15;;;;;;;4.57;3.27;;;2.80;81.60;;;;;;5033693;28;20182;-72
2024/01/21 02:28:40;;;;;;;5.27;3.57;;;2.80;81.00;;;;;;5032260;28;20304;-72
2024/01/21 02:31:06;;;;;;;5.07;3.77;;;2.80;81.90;;;;;;5032799;28;21068;-72
2024/01/21 02:33:32;;;;;;;5.10;3.50;;;2.80;80.40;;;;;;5034270;28;20273;-71
2024/01/21 02:35:57;;;;;;;4.80;3.50;;;2.80;80.20;;;;;;5033826;28;20550;-72
2024/01/21 02:38:23;;;;;;;5.13;3.83;;;2.80;81.90;;;;;;5016011;28;20182;-72
2024/01/21 02:40:49;;;;;;;6.83;3.77;;;2.70;82.30;;;;;;5016461;28;20181;-72
2024/01/21 02:43:14;;;;;;;6.87;4.50;;;2.70;83.00;;;;;;5032977;28;21171;-72
2024/01/21 02:45:40;;;;;;;4.80;3.43;;;2.80;82.60;;;;;;5034132;28;20182;-72
2024/01/21 02:48:06;;;;;;;5.07;3.80;;;2.70;82.80;;;;;;5033076;28;20978;-72
2024/01/21 02:50:32;;;;;;;5.83;3.93;;;2.70;82.70;;;;;;5034157;28;20209;-72
2024/01/21 02:52:57;;;;;;;5.53;3.27;;;2.70;83.40;;;;;;5032730;28;20455;-72
2024/01/21 02:55:23;;;;;;;5.97;3.77;;;2.70;83.00;;;;;;5015490;28;20562;-71
2024/01/21 02:57:49;;;;;;;6.40;3.90;;;2.80;83.60;;;;;;5033849;28;20186;-72
2024/01/21 03:00:15;;;;;;;5.60;3.90;;;2.80;82.60;;;;;;5032849;28;20195;-72
2024/01/21 03:02:40;;;;;;;4.93;3.83;;;2.80;81.80;;;;;;5033587;28;20185;-72
2024/01/21 03:05:06;;;;;;;4.77;3.63;;;2.80;82.20;;;;;;5014742;28;20429;-72
2024/01/21 03:07:32;;;;;;;6.97;5.10;;;2.90;81.50;;;;;;5033544;28;20261;-71
2024/01/21 03:09:58;;;;;;;4.20;3.40;;;2.80;81.30;;;;;;5031757;28;20582;-71
2024/01/21 03:12:23;;;;;;;5.07;3.40;;;2.80;81.30;;;;;;5033403;28;20193;-72
2024/01/21 03:14:49;;;;;;;4.80;3.23;;;2.80;81.50;;;;;;5015441;28;20182;-72
2024/01/21 03:17:15;;;;;;;7.30;4.10;;;2.80;82.00;;;;;;5033323;28;20206;-71
2024/01/21 03:19:41;;;;;;;4.97;3.10;;;2.80;82.00;;;;;;5033338;28;20779;-71
2024/01/21 03:22:07;;;;;;;6.43;3.47;;;2.80;80.40;;;;;;5032621;28;20813;-72
2024/01/21 03:24:34;;;;;;;5.97;3.80;;;2.80;81.30;;;;;;5031914;28;20190;-71
2024/01/21 03:26:59;;;;;;;5.33;3.90;;;2.70;82.40;;;;;;5032405;28;20217;-71
2024/01/21 03:29:25;;;;;;;7.43;3.80;;;2.80;80.30;;;;;;5014520;28;20957;-71
2024/01/21 03:31:51;;;;;;;5.90;4.43;;;2.80;80.90;;;;;;4998951;28;20213;-72
2024/01/21 03:34:17;;;;;;;4.00;3.03;;;2.80;80.40;;;;;;5033157;28;20267;-72
2024/01/21 03:36:42;;;;;;;4.40;3.10;;;2.80;81.10;;;;;;5033200;28;20193;-72
2024/01/21 03:39:08;;;;;;;4.93;3.43;;;2.80;81.20;;;;;;5032685;28;20665;-71
2024/01/21 03:41:33;;;;;;;6.40;3.93;;;2.80;81.60;;;;;;5032993;28;20213;-72
2024/01/21 03:43:59;;;;;;;6.00;3.90;;;2.80;81.30;;;;;;5032558;28;20185;-72
2024/01/21 03:46:25;;;;;;;4.87;3.80;;;2.80;81.50;;;;;;5015274;28;20243;-72
2024/01/21 03:48:50;;;;;;;4.50;3.10;;;2.70;82.40;;;;;;5033088;28;20274;-72
2024/01/21 03:51:16;;;;;;;5.17;4.43;;;2.80;82.70;;;;;;5034512;28;20260;-72
2024/01/21 03:53:42;;;;;;;5.40;3.80;;;2.70;83.10;;;;;;5016043;28;20181;-72
2024/01/21 03:56:18;;;;;;;4.70;3.57;;;2.70;82.90;;;;;;5032463;28;20201;-72
2024/01/21 03:58:44;;;;;;;5.13;3.90;;;2.70;83.50;;;;;;5015729;28;20268;-72
2024/01/21 04:01:09;;;;;;;5.60;4.00;;;2.70;82.70;;;;;;5033596;28;20428;-72
2024/01/21 04:03:35;;;;;;;4.80;3.40;;;2.70;83.80;;;;;;5034280;28;20943;-72
2024/01/21 04:06:01;;;;;;;7.40;4.00;;;2.70;83.00;;;;;;5032263;28;20591;-72
2024/01/21 04:08:26;;;;;;;4.57;3.20;;;2.60;83.40;;;;;;5033982;28;20226;-72
2024/01/21 04:10:53;;;;;;;6.37;4.10;;;2.70;83.20;;;;;;5032771;28;20212;-72
2024/01/21 04:13:20;;;;;;;5.03;3.40;;;2.70;83.60;;;;;;5016043;28;20627;-72
2024/01/21 04:15:46;;;;;;;5.83;4.23;;;2.60;82.80;;;;;;5031148;28;20545;-71
2024/01/21 04:18:11;;;;;;;4.47;3.30;;;2.60;83.50;;;;;;4998738;28;21045;-72
2024/01/21 04:20:37;;;;;;;4.37;3.27;;;2.60;82.60;;;;;;5033538;28;20429;-72
2024/01/21 04:23:03;;;;;;;4.87;3.57;;;2.60;84.20;;;;;;5032601;28;20541;-72
2024/01/21 04:25:29;;;;;;;4.93;3.97;;;2.50;83.60;;;;;;5033242;28;20181;-72
2024/01/21 04:27:54;;;;;;;4.80;3.33;;;2.50;84.20;;;;;;5032302;28;20738;-72
2024/01/21 04:30:20;;;;;;;6.03;3.30;;;2.50;85.00;;;;;;5015024;28;20194;-71
2024/01/21 04:32:45;;;;;;;4.53;3.50;;;2.50;84.30;;;;;;5033114;28;20221;-72
2024/01/21 04:35:11;;;;;;;3.27;2.67;;;2.50;82.80;;;;;;5032450;28;20190;-72
2024/01/21 04:37:37;;;;;;;4.37;3.70;;;2.50;81.90;;;;;;5015623;28;20178;-72
2024/01/21 04:40:03;;;;;;;5.00;3.20;;;2.50;84.00;;;;;;5033555;28;20268;-72
2024/01/21 04:42:29;;;;;;;5.00;3.43;;;2.50;82.90;;;;;;5036639;28;20214;-72
2024/01/21 04:44:55;;;;;;;6.13;3.60;;;2.50;83.30;;;;;;5035621;28;20467;-72
2024/01/21 04:47:21;;;;;;;5.07;3.50;;;2.50;82.40;;;;;;5035832;28;20997;-72
2024/01/21 04:49:46;;;;;;;5.07;3.47;;;2.50;82.50;;;;;;5036143;28;20301;-72
2024/01/21 04:52:12;;;;;;;4.73;3.30;;;2.50;83.60;;;;;;5035774;28;20190;-72
2024/01/21 04:54:38;;;;;;;3.90;3.10;;;2.50;83.30;;;;;;5018785;28;20178;-72
2024/01/21 04:57:04;;;;;;;6.50;3.70;;;2.50;81.90;;;;;;5018256;28;20683;-72
2024/01/21 04:59:29;;;;;;;6.70;3.70;;;2.50;82.30;;;;;;5036597;28;20187;-72
2024/01/21 05:01:55;;;;;;;5.60;3.67;;;2.50;82.20;;;;;;5035653;28;20477;-72
2024/01/21 05:04:21;;;;;;;5.63;3.30;;;2.50;83.60;;;;;;5002625;28;20703;-72
2024/01/21 05:06:46;;;;;;;5.60;3.80;;;2.50;82.70;;;;;;5035504;28;20188;-72
2024/01/21 05:09:12;;;;;;;4.20;3.30;;;2.50;81.10;;;;;;5036335;28;20253;-72
2024/01/21 05:11:38;;;;;;;5.03;3.50;;;2.50;82.80;;;;;;5036061;28;20178;-72
2024/01/21 05:14:04;;;;;;;4.23;3.37;;;2.50;82.20;;;;;;5018123;28;20185;-72
2024/01/21 05:16:29;;;;;;;5.60;3.70;;;2.50;83.00;;;;;;5035906;28;20448;-72
2024/01/21 05:18:56;;;;;;;4.67;3.20;;;2.50;82.10;;;;;;5035617;28;20273;-72
2024/01/21 05:21:22;;;;;;;5.53;3.70;;;2.60;83.80;;;;;;5035500;28;20181;-72
2024/01/21 05:23:50;;;;;;;5.13;3.50;;;2.50;83.90;;;;;;5034067;28;21040;-72
2024/01/21 05:26:15;;;;;;;5.20;3.60;;;2.50;84.40;;;;;;5035533;28;20836;-72
2024/01/21 05:28:41;;;;;;;4.90;3.80;;;2.50;83.80;;;;;;5035337;28;20461;-72
2024/01/21 05:31:07;;;;;;;5.50;3.60;;;2.50;83.00;;;;;;5017268;28;20244;-72
2024/01/21 05:33:38;;;;;;;4.07;3.30;;;2.50;83.90;;;;;;5035587;28;21013;-72
2024/01/21 05:36:04;;;;;;;4.93;3.30;;;2.50;83.60;;;;;;5034633;28;20341;-72
2024/01/21 05:38:29;;;;;;;3.97;3.17;;;2.50;84.30;;;;;;5035734;28;20436;-72
2024/01/21 05:40:55;;;;;;;3.63;3.13;;;2.50;85.00;;;;;;5017102;28;20803;-72
2024/01/21 05:43:21;;;;;;;4.40;3.20;;;2.50;83.60;;;;;;5036292;28;20201;-72
2024/01/21 05:45:46;;;;;;;5.20;2.97;;;2.50;85.10;;;;;;5034714;28;20198;-72
2024/01/21 05:48:12;;;;;;;4.50;3.00;;;2.50;84.30;;;;;;5034381;28;20217;-72
2024/01/21 05:50:38;;;;;;;6.67;4.07;;;2.50;84.40;;;;;;5035372;28;20179;-73
2024/01/21 05:53:05;;;;;;;3.83;3.20;;;2.50;84.90;;;;;;5035215;28;20182;-72
2024/01/21 05:55:32;;;;;;;3.90;3.00;;;2.50;85.40;;;;;;5034235;28;20174;-72
2024/01/21 05:57:58;;;;;;;5.50;3.37;;;2.50;84.80;;;;;;5034505;28;21301;-72
2024/01/21 06:00:24;;;;;;;5.33;3.77;;;2.50;84.40;;;;;;5035430;28;20969;-72
2024/01/21 06:02:51;;;;;;;4.13;3.03;;;2.50;84.10;;;;;;5034654;28;20516;-72
2024/01/21 06:05:17;;;;;;;4.03;3.10;;;2.60;83.40;;;;;;5034505;28;20181;-72
2024/01/21 06:07:44;;;;;;;4.20;3.10;;;2.60;84.40;;;;;;5034276;28;20431;-73
2024/01/21 06:10:10;;;;;;;5.17;3.00;;;2.60;84.30;;;;;;5034848;28;20190;-73
2024/01/21 06:12:36;;;;;;;3.50;3.00;;;2.60;84.40;;;;;;5034802;28;20439;-72
2024/01/21 06:15:03;;;;;;;4.30;2.90;;;2.50;84.80;;;;;;5033494;28;20467;-72
2024/01/21 06:17:28;;;;;;;5.27;3.67;;;2.60;85.50;;;;;;5035151;28;20422;-72
2024/01/21 06:19:54;;;;;;;5.80;3.90;;;2.60;86.20;;;;;;5034053;28;21174;-72
2024/01/21 06:22:20;;;;;;;4.97;3.43;;;2.50;85.70;;;;;;5017074;28;22525;-72
2024/01/21 06:24:45;;;;;;;6.33;3.17;;;2.50;85.50;;;;;;5033948;28;20182;-72
2024/01/21 06:27:11;;;;;;;4.83;3.57;;;2.60;86.90;;;;;;5034186;28;20178;-72
2024/01/21 06:29:37;;;;;;;4.57;3.67;;;2.60;87.10;;;;;;5000602;28;20987;-72
2024/01/21 06:32:03;;;;;;;5.80;4.07;;;2.60;86.30;;;;;;5032122;28;20259;-72
2024/01/21 06:34:28;;;;;;;6.50;4.53;;;2.60;87.00;;;;;;5032108;28;20195;-72
2024/01/21 06:36:54;;;;;;;5.60;4.27;;;2.50;87.60;;;;;;5025900;28;20445;-72
2024/01/21 06:39:20;;;;;;;6.90;4.87;;;2.50;88.20;;;;;;5029800;28;20186;-72
2024/01/21 06:41:45;;;;;;;8.43;4.43;;;2.40;89.80;;;;;;5032084;28;20231;-72
2024/01/21 06:44:11;;;;;;;4.70;3.97;;;2.40;90.20;;;;;;5032359;28;20185;-72
2024/01/21 06:46:37;;;;;;;8.40;4.80;;;2.40;90.40;;;;;;5024286;28;20448;-72
2024/01/21 06:49:03;;;;;;;6.23;4.67;;;2.40;90.30;;;;;;4999468;28;20217;-72
2024/01/21 06:51:34;;;;;;;5.60;4.00;;;2.40;90.70;;;;;;5015802;28;20460;-72
2024/01/21 06:54:00;;;;;;;7.37;4.53;;;2.30;90.60;;;;;;5033061;28;20651;-72
2024/01/21 06:56:26;;;;;;;6.30;4.17;;;2.30;91.00;;;;;;5033095;28;20428;-73
2024/01/21 06:58:52;;;;;;;5.87;4.13;;;2.40;91.40;;;;;;5015133;28;20448;-72
2024/01/21 07:01:18;;;;;;;5.40;4.20;;;2.40;91.70;;;;;;5032225;28;20185;-72
2024/01/21 07:03:45;;;;;;;6.00;4.43;;;2.40;91.50;;;;;;5033147;28;20443;-72
2024/01/21 07:06:11;;;;;;;5.43;3.80;;;2.40;91.60;;;;;;5032383;28;20627;-72
2024/01/21 07:08:38;;;;;;;7.40;4.87;;;2.40;91.70;;;;;;5032726;28;20906;-72
2024/01/21 07:11:10;;;;;;;5.73;4.13;;;2.40;91.70;;;;;;5032147;28;20494;-72
2024/01/21 07:13:36;;;;;;;6.20;4.57;;;2.40;92.10;;;;;;5032951;28;20946;-72
2024/01/21 07:16:05;;;;;;;6.93;4.57;;;2.40;92.80;;;;;;5032533;28;20540;-72
2024/01/21 07:18:31;;;;;;;5.80;4.30;;;2.30;92.90;;;;;;5033282;28;20461;-72
2024/01/21 07:20:56;;;;;;;7.10;4.63;;;2.30;92.90;;;;;;5033070;28;20460;-72
2024/01/21 07:23:22;;;;;;;5.93;4.63;;;2.40;92.90;;;;;;5033197;28;20871;-72
2024/01/21 07:25:48;;;;;;;6.47;4.80;;;2.40;92.90;;;;;;5032048;28;20217;-72
2024/01/21 07:28:14;;;;;;;6.90;4.83;;;2.40;92.70;;;;;;5032898;28;20659;-72
2024/01/21 07:30:41;;;;;;;7.03;5.30;;;2.40;93.10;;;;;;5032305;28;20272;-72
2024/01/21 07:33:06;;;;;;;9.10;5.53;;;2.40;93.60;;;;;;5033296;28;20459;-72
2024/01/21 07:35:32;;;;;;;8.00;5.40;;;2.40;93.80;;;;;;5032269;28;20809;-72
2024/01/21 07:37:58;;;;;;;7.27;5.03;;;2.40;94.00;;;;;;5032276;28;20355;-72
2024/01/21 07:40:24;;;;;;;9.00;5.40;;;2.40;93.50;;;;;;5032967;28;20435;-72
2024/01/21 07:42:49;;;;;;;7.00;5.10;;;2.50;93.70;;;;;;5032405;28;20653;-72
2024/01/21 07:45:15;;;;;;;8.67;5.47;;;2.40;93.60;;;;;;5032887;28;20186;-72
2024/01/21 07:47:41;;;;;;;7.03;5.43;;;2.50;93.70;;;;;;5014182;28;20304;-72
2024/01/21 07:50:07;;;;;;;9.73;6.07;;;2.50;93.70;;;;;;5014722;28;20306;-72
2024/01/21 07:52:33;;;;;;;8.67;5.47;;;2.60;93.90;;;;;;5027583;28;20187;-72
2024/01/21 07:54:58;;;;;;;8.20;5.23;;;2.50;94.30;;;;;;5030839;28;20441;-72
2024/01/21 07:57:24;;;;;;;8.40;5.27;;;2.50;94.20;;;;;;5014749;28;20997;-72
2024/01/21 07:59:50;;;;;;;8.10;5.97;;;2.50;94.10;;;;;;5030466;28;20649;-72
2024/01/21 08:02:16;;;;;;;6.67;4.77;;;2.60;94.30;;;;;;5031649;28;20644;-72
2024/01/21 08:04:42;;;;;;;7.40;5.43;;;2.60;94.30;;;;;;5004005;28;21393;-72
2024/01/21 08:07:08;;;;;;;8.90;5.33;;;2.50;94.70;;;;;;5028666;28;20444;-72
2024/01/21 08:09:34;;;;;;;7.67;5.13;;;2.50;94.50;;;;;;5030169;28;20538;-72
2024/01/21 08:12:00;;;;;;;8.30;5.80;;;2.50;94.40;;;;;;5031497;28;20447;-72
2024/01/21 08:14:26;;;;;;;7.07;5.30;;;2.50;94.70;;;;;;5015658;28;20535;-72
2024/01/21 08:16:53;;;;;;;9.03;5.30;;;2.50;94.70;;;;;;5035134;28;20441;-72
2024/01/21 08:19:20;;;;;;;7.57;5.13;;;2.50;94.70;;;;;;5035195;28;20432;-72
2024/01/21 08:21:46;;;;;;;6.23;4.80;;;2.60;94.10;;;;;;5032880;28;20452;-72
2024/01/21 08:24:12;;;;;;;7.90;4.93;;;2.60;93.70;;;;;;5034156;28;20432;-72
2024/01/21 08:26:38;;;;;;;9.00;6.50;;;2.60;93.10;;;;;;5034317;28;20867;-72
2024/01/21 08:29:04;;;;;;;8.60;5.10;;;2.70;93.00;;;;;;5034532;28;20845;-72
2024/01/21 08:31:30;;;;;;;5.53;4.20;;;2.80;92.60;;;;;;5034881;28;20425;-72
2024/01/21 08:33:56;;;;;;;6.17;5.10;;;2.80;92.40;;;;;;5034281;28;20188;-72
2024/01/21 08:36:21;;;;;;;7.97;5.53;;;2.80;92.60;;;;;;5035121;28;20280;-72
2024/01/21 08:38:47;;;;;;;6.63;4.73;;;2.80;92.90;;;;;;5033512;28;21344;-72
2024/01/21 08:41:13;;;;;;;7.77;5.17;;;2.90;92.70;;;;;;5034642;28;20294;-72
2024/01/21 08:43:38;;;;;;;6.77;5.53;;;2.90;92.70;;;;;;5035140;28;20179;-72
2024/01/21 08:46:04;;;;;;;7.93;5.30;;;2.90;92.60;;;;;;5033950;28;20256;-72
2024/01/21 08:48:29;;;;;;;8.40;5.97;;;2.90;92.90;;;;;;5034712;28;20225;-72
2024/01/21 08:50:56;;;;;;;9.17;5.93;;;3.00;92.80;;;;;;5034802;28;20186;-72
2024/01/21 08:53:22;;;;;;;8.23;5.97;;;3.00;92.30;;;;;;5034574;28;20323;-72
2024/01/21 08:55:48;;;;;;;6.80;5.30;;;2.90;92.50;;;;;;5034518;28;20503;-72
2024/01/21 08:58:13;;;;;;;7.87;5.73;;;3.00;92.90;;;;;;5034146;28;21180;-72
2024/01/21 09:00:39;;;;;;;9.20;5.27;;;2.90;93.30;;;;;;5034252;28;20178;-72
2024/01/21 09:03:05;;;;;;;9.00;5.57;;;2.90;93.40;;;;;;5034325;28;20256;-72
2024/01/21 09:05:30;;;;;;;8.20;5.80;;;3.00;93.40;;;;;;5032952;28;20214;-72
2024/01/21 09:07:56;;;;;;;7.47;5.20;;;3.00;93.70;;;;;;5032982;28;20198;-72
2024/01/21 09:10:22;;;;;;;6.97;5.23;;;2.90;93.60;;;;;;5032393;28;20182;-72
2024/01/21 09:12:48;;;;;;;9.73;6.00;;;2.90;94.00;;;;;;5031489;28;20236;-72
2024/01/21 09:15:13;;;;;;;6.93;5.80;;;3.00;94.00;;;;;;5029735;28;20202;-72
2024/01/21 09:17:40;;;;;;;7.40;4.80;;;3.00;93.00;;;;;;5031847;28;20182;-72
2024/01/21 09:20:06;;;;;;;9.03;4.97;;;3.10;92.00;;;;;;5033508;28;20186;-72
2024/01/21 09:22:31;;;;;;;7.90;5.53;;;3.20;91.90;;;;;;5033537;28;20507;-72
2024/01/21 09:24:57;;;;;;;10.83;6.07;;;3.20;92.00;;;;;;5033151;28;20432;-72
2024/01/21 09:27:23;;;;;;;8.10;6.00;;;3.30;92.30;;;;;;5033310;28;20647;-72
2024/01/21 09:29:49;;;;;;;10.20;6.40;;;3.40;92.50;;;;;;5034147;28;20865;-72
2024/01/21 09:32:15;;;;;;;8.60;5.77;;;3.40;92.40;;;;;;5031855;28;20213;-72
2024/01/21 09:34:43;;;;;;;8.60;5.60;;;3.40;92.10;;;;;;5033788;28;20433;-72
2024/01/21 09:37:09;;;;;;;8.57;6.10;;;3.50;91.20;;;;;;5033353;28;20433;-72
2024/01/21 09:39:37;;;;;;;6.83;5.10;;;3.60;91.30;;;;;;5032069;28;20466;-72
2024/01/21 09:42:07;;;;;;;7.83;5.70;;;3.60;91.50;;;;;;5033039;28;20794;-73
2024/01/21 09:44:33;;;;;;;7.40;5.37;;;3.70;91.30;;;;;;5033184;28;20425;-73
2024/01/21 09:47:00;;;;;;;9.90;6.00;;;3.70;91.70;;;;;;5032909;28;20444;-72
2024/01/21 09:49:26;;;;;;;8.23;6.17;;;3.70;91.20;;;;;;5031089;28;20270;-72
2024/01/21 09:51:53;;;;;;;9.27;6.63;;;3.70;91.30;;;;;;5033791;28;20515;-72
2024/01/21 09:54:20;;;;;;;7.50;6.20;;;3.70;91.40;;;;;;5031484;28;20985;-72
2024/01/21 09:56:47;;;;;;;6.83;5.33;;;3.70;91.80;;;;;;5031668;28;20425;-72
2024/01/21 09:59:13;;;;;;;7.70;6.20;;;3.70;92.00;;;;;;5031518;28;20554;-73
2024/01/21 10:01:40;;;;;;;10.30;6.07;;;3.70;91.90;;;;;;5031680;28;20924;-73
2024/01/21 10:04:07;;;;;;;9.20;6.57;;;3.60;92.20;;;;;;5030927;28;20436;-72
2024/01/21 10:06:33;;;;;;;8.20;5.90;;;3.60;92.30;;;;;;5030817;28;20467;-72
2024/01/21 10:09:22;;;;;;;8.70;6.07;;;3.70;92.60;;;;;;5032667;28;20546;-72
2024/01/21 10:11:55;;;;;;;8.07;5.80;;;3.70;93.20;;;;;;5032335;28;20436;-72
2024/01/21 10:14:21;;;;;;;8.40;5.80;;;3.70;93.50;;;;;;5014326;28;20942;-72
2024/01/21 10:16:47;;;;;;;7.03;5.63;;;3.80;93.90;;;;;;5014955;28;20564;-72
2024/01/21 10:19:28;;;;;;;8.70;5.90;;;3.80;94.20;;;;;;5031302;28;20440;-70
2024/01/21 10:22:14;;;;;;;10.80;6.13;;;3.70;94.90;;;;;;5030661;28;20446;-71
2024/01/21 10:24:41;;;;;;;7.53;5.33;;;3.80;95.60;;;;;;5031512;28;20440;-71
2024/01/21 10:27:08;;;;;;;7.23;5.47;;;3.80;96.00;;;;;;5032073;28;20436;-71
2024/01/21 10:29:45;;;;;;;7.50;5.23;;;3.90;96.60;;;;;;5031516;28;21560;-71
2024/01/21 10:32:12;;;;;;;8.00;5.97;;;3.90;97.10;;;;;;5030534;28;20436;-71
2024/01/21 10:34:40;;;;;;;8.10;5.20;;;4.00;97.80;;;;;;5012956;28;20429;-71
2024/01/21 10:37:07;;;;;;;7.20;5.17;;;4.10;98.10;;;;;;5013654;28;20527;-71
2024/01/21 10:39:35;;;;;;;7.07;5.33;;;4.10;98.30;;;;;;5031472;28;20957;-71
2024/01/21 10:42:02;;;;;;;6.40;5.00;;;4.20;98.70;;;;;;5029757;28;20429;-71
2024/01/21 10:44:28;;;;;;;8.10;5.53;;;4.20;98.80;;;;;;5013326;28;20460;-71
2024/01/21 10:46:55;;;;;;;8.10;5.43;;;4.20;99.10;;;;;;5030043;28;20444;-71
2024/01/21 10:49:21;;;;;;;7.50;5.60;;;4.20;99.10;;;;;;5011446;28;20484;-71
2024/01/21 10:51:51;;;;;;;7.33;5.50;;;4.20;99.20;;;;;;5031117;28;20427;-71
2024/01/21 10:54:17;;;;;;;8.17;5.67;;;4.30;99.60;;;;;;5029342;28;20528;-71
2024/01/21 10:56:43;;;;;;;7.70;5.83;;;4.30;99.60;;;;;;5011603;28;20897;-71
2024/01/21 10:59:13;;;;;;;8.27;5.93;;;4.30;99.80;;;;;;5028673;28;20198;-71
2024/01/21 11:01:42;;;;;;;10.10;6.10;;;4.20;99.90;;;;;;5030973;28;20479;-71
2024/01/21 11:04:12;;;;;;;7.20;5.10;;;4.30;99.90;;;;;;5012295;28;20436;-71
2024/01/21 11:06:46;;;;;;;8.13;6.50;;;4.30;99.90;;;;;;5030309;28;20425;-71
2024/01/21 11:09:21;;;;;;;7.33;5.60;;;4.30;99.90;;;;;;5031112;28;20848;-71
2024/01/21 11:11:49;;;;;;;9.50;6.37;;;4.30;99.90;;;;;;5031430;28;20435;-71
2024/01/21 11:14:38;;;;;;;8.70;6.53;;;4.30;99.90;;;;;;5031741;28;20429;-71
2024/01/21 11:17:10;;;;;;;10.00;6.70;;;4.30;99.90;;;;;;5031319;28;21133;-71
2024/01/21 11:19:47;;;;;;;7.57;6.03;;;4.30;99.90;;;;;;5030836;28;20436;-71
2024/01/21 11:22:15;;;;;;;7.80;5.33;;;4.20;99.90;;;;;;5029854;28;20434;-71
2024/01/21 11:24:41;;;;;;;9.47;6.20;;;4.20;99.90;;;;;;5013526;28;21276;-71
2024/01/21 11:27:18;;;;;;;7.50;6.13;;;4.20;99.90;;;;;;5011958;28;20433;-71
2024/01/21 11:29:44;;;;;;;8.37;6.00;;;4.30;99.90;;;;;;5029793;28;20468;-71
2024/01/21 11:32:11;;;;;;;7.93;6.07;;;4.30;99.90;;;;;;5030756;28;21117;-71
2024/01/21 11:34:42;;;;;;;12.00;6.37;;;4.30;99.90;;;;;;5029296;28;20434;-71
2024/01/21 11:37:15;;;;;;;7.70;6.30;;;4.40;99.90;;;;;;5029038;28;20429;-71
2024/01/21 11:39:42;;;;;;;9.27;6.90;;;4.40;99.90;;;;;;4999471;28;20501;-71
2024/01/21 11:42:08;;;;;;;8.90;6.43;;;4.40;99.90;;;;;;5029161;28;20445;-71
2024/01/21 11:44:35;;;;;;;8.83;5.90;;;4.30;99.90;;;;;;5027621;28;20433;-72
2024/01/21 11:47:03;;;;;;;8.57;6.80;;;4.30;99.90;;;;;;5028425;28;20258;-72
2024/01/21 11:49:30;;;;;;;8.73;6.50;;;4.30;99.90;;;;;;5029829;28;20471;-72
2024/01/21 11:51:57;;;;;;;8.57;6.10;;;4.30;99.90;;;;;;5030409;28;20433;-71
2024/01/21 11:54:23;;;;;;;9.30;6.63;;;4.30;99.90;;;;;;5027549;28;20440;-72
2024/01/21 11:56:50;;;;;;;7.30;5.30;;;4.30;99.90;;;;;;5030760;28;20436;-72
2024/01/21 11:59:16;;;;;;;9.60;6.63;;;4.30;99.90;;;;;;5030879;28;20216;-72
2024/01/21 12:01:42;;;;;;;8.77;6.47;;;4.20;99.90;;;;;;5031399;28;20416;-72
2024/01/21 12:04:09;;;;;;;10.23;6.33;;;4.20;99.90;;;;;;5010142;28;20447;-71
2024/01/21 12:06:43;;;;;;;8.83;6.90;;;4.20;99.90;;;;;;4995592;28;20462;-72
2024/01/21 12:09:10;;;;;;;12.17;6.50;;;4.20;99.90;;;;;;4999660;28;20487;-72
2024/01/21 12:11:37;;;;;;;11.37;6.40;;;4.10;99.90;;;;;;5011973;28;20540;-72
2024/01/21 12:14:08;;;;;;;9.40;6.30;;;4.20;99.90;;;;;;4999598;28;20443;-72
2024/01/21 12:16:35;;;;;;;10.10;6.03;;;4.10;99.90;;;;;;5025260;28;20449;-72
2024/01/21 12:19:02;;;;;;;9.00;6.53;;;4.10;99.90;;;;;;5024821;28;20436;-71
2024/01/21 12:21:29;;;;;;;6.30;5.37;;;4.10;99.90;;;;;;4999077;28;20421;-71
2024/01/21 12:23:56;;;;;;;10.47;6.37;;;4.20;99.90;;;;;;5030238;28;20490;-70
2024/01/21 12:26:22;;;;;;;9.67;6.73;;;4.20;99.90;;;;;;5028438;28;20426;-71
2024/01/21 12:28:58;;;;;;;8.37;6.30;;;4.20;99.90;;;;;;5030379;28;20468;-70
2024/01/21 12:31:28;;;;;;;11.50;7.27;;;4.20;99.90;;;;;;5027902;28;20566;-72
2024/01/21 12:33:55;;;;;;;8.90;6.70;;;4.20;99.90;;;;;;5030131;28;20429;-72
2024/01/21 12:36:20;;;;;;;10.03;7.27;;;4.30;99.90;;;;;;5009971;28;20441;-72
2024/01/21 12:38:49;;;;;;;8.37;6.97;;;4.30;99.90;;;;;;5010141;28;21163;-72
2024/01/21 12:41:15;;;;;;;9.43;6.30;;;4.30;99.90;;;;;;5027929;28;20194;-72
2024/01/21 12:43:42;;;;;;;8.20;6.50;;;4.30;99.90;;;;;;5029785;28;20512;-72
2024/01/21 12:46:12;;;;;;;10.17;6.93;;;4.30;99.90;;;;;;5027696;28;20467;-72
2024/01/21 12:48:37;;;;;;;11.00;6.90;;;4.30;99.90;;;;;;5027373;28;20484;-72
2024/01/21 12:51:03;;;;;;;9.67;7.47;;;4.30;99.90;;;;;;5029168;28;20518;-72